Time;durP1;ratioP1;P1;durP2;ratioP2;P2;SDS_P1;SDS_P2;PMS_P1;PMS_P2;Temp;Humidity;BMP_temperature;BMP_pressure;BME280_temperature;BME280_humidity;BME280_pressure;Samples;Min_cycle;Max_cycle;Signal;HPM_P1;HPM_P2
2023/06/03 00:01:08;;;;;;;15.48;6.80;;;;;;;12.66;100.00;102028.91;5226154;28;20028;-70
2023/06/03 00:03:39;;;;;;;22.48;7.57;;;;;;;12.65;100.00;102026.34;5226701;28;20036;-72
2023/06/03 00:06:09;;;;;;;21.58;7.13;;;;;;;12.62;100.00;102030.19;5225290;28;20021;-71
2023/06/03 00:08:42;;;;;;;17.90;6.80;;;;;;;12.62;100.00;102021.28;5226930;28;20037;-70
2023/06/03 00:11:14;;;;;;;17.25;7.63;;;;;;;12.61;100.00;102025.81;5225975;28;20025;-70
2023/06/03 00:13:44;;;;;;;18.02;7.78;;;;;;;12.62;100.00;102026.66;5236534;28;20029;-70
2023/06/03 00:16:15;;;;;;;18.20;7.40;;;;;;;12.60;100.00;102024.13;5242292;28;20036;-70
2023/06/03 00:18:45;;;;;;;18.50;7.28;;;;;;;12.56;100.00;102022.75;5209583;28;20016;-70
2023/06/03 00:21:17;;;;;;;17.02;7.65;;;;;;;12.58;100.00;102017.19;5225871;28;20036;-70
2023/06/03 00:23:48;;;;;;;18.13;7.88;;;;;;;12.56;100.00;102020.03;5235096;28;20024;-70
2023/06/03 00:26:18;;;;;;;18.92;7.25;;;;;;;12.54;100.00;102018.47;5227728;28;20390;-70
2023/06/03 00:28:49;;;;;;;24.63;8.75;;;;;;;12.49;100.00;102013.56;5244697;28;20025;-70
2023/06/03 00:31:20;;;;;;;19.25;7.88;;;;;;;12.45;100.00;102014.88;5244966;28;20032;-70
2023/06/03 00:33:51;;;;;;;21.58;7.90;;;;;;;12.41;100.00;102013.47;5244942;28;20017;-70
2023/06/03 00:36:21;;;;;;;16.65;8.48;;;;;;;12.37;100.00;102018.31;5244110;28;20474;-70
2023/06/03 00:38:52;;;;;;;17.45;8.38;;;;;;;12.35;100.00;102020.31;5244434;28;20021;-71
2023/06/03 00:41:22;;;;;;;20.50;10.02;;;;;;;12.33;100.00;102019.59;5236490;28;20035;-70
2023/06/03 00:43:53;;;;;;;18.95;8.70;;;;;;;12.32;100.00;102015.22;5225737;28;20029;-70
2023/06/03 00:46:24;;;;;;;21.52;9.43;;;;;;;12.32;100.00;102017.06;5224222;28;20124;-70
2023/06/03 00:48:54;;;;;;;22.13;9.35;;;;;;;12.29;100.00;102011.97;5225950;28;20017;-70
2023/06/03 00:51:25;;;;;;;18.52;10.07;;;;;;;12.26;100.00;102014.97;5224854;28;20124;-70
2023/06/03 00:53:55;;;;;;;29.45;9.55;;;;;;;12.30;100.00;102013.66;5225365;28;20036;-70
2023/06/03 00:56:27;;;;;;;19.80;10.75;;;;;;;12.28;100.00;102013.81;5224289;28;20509;-71
2023/06/03 00:58:58;;;;;;;19.60;9.38;;;;;;;12.27;100.00;102016.66;5237825;28;20040;-70
2023/06/03 01:01:30;;;;;;;19.38;11.18;;;;;;;12.28;100.00;102012.97;5225054;28;20090;-70
2023/06/03 01:04:01;;;;;;;26.50;11.20;;;;;;;12.26;100.00;102010.44;5225278;28;20056;-70
2023/06/03 01:06:45;;;;;;;23.08;9.88;;;;;;;12.24;100.00;102007.03;5225006;28;20505;-70
2023/06/03 01:09:40;;;;;;;26.45;10.20;;;;;;;12.21;100.00;102010.03;5224646;28;20029;-70
2023/06/03 01:12:34;;;;;;;25.73;10.65;;;;;;;12.20;100.00;102008.34;5237015;28;20740;-70
2023/06/03 01:15:13;;;;;;;23.98;10.82;;;;;;;12.19;100.00;102009.31;5225141;28;20017;-70
2023/06/03 01:17:47;;;;;;;23.73;10.68;;;;;;;12.19;100.00;102010.16;5223862;28;20021;-70
2023/06/03 01:20:19;;;;;;;25.27;11.17;;;;;;;12.19;100.00;102003.94;5236970;28;20436;-70
2023/06/03 01:22:56;;;;;;;27.02;10.68;;;;;;;12.14;100.00;102007.06;5233002;28;20066;-70
2023/06/03 01:25:26;;;;;;;27.50;12.35;;;;;;;12.14;100.00;101995.47;5244290;28;20020;-70
2023/06/03 01:27:57;;;;;;;24.70;11.15;;;;;;;12.12;100.00;101997.47;5243814;28;20090;-70
2023/06/03 01:30:28;;;;;;;21.17;11.63;;;;;;;12.10;100.00;101996.78;5244543;28;20041;-70
2023/06/03 01:32:59;;;;;;;17.15;9.30;;;;;;;12.08;100.00;101994.22;5239164;28;20029;-70
2023/06/03 01:35:31;;;;;;;20.75;10.32;;;;;;;12.07;100.00;101989.84;5235857;28;20074;-69
2023/06/03 01:38:03;;;;;;;25.35;9.98;;;;;;;12.05;100.00;101989.16;5224118;28;20048;-70
2023/06/03 01:40:35;;;;;;;22.92;11.82;;;;;;;12.05;100.00;101988.28;5207153;28;20033;-70
2023/06/03 01:43:06;;;;;;;25.92;10.85;;;;;;;12.03;100.00;101982.22;5224393;28;20112;-70
2023/06/03 01:45:36;;;;;;;24.02;10.60;;;;;;;12.00;100.00;101991.44;5224462;28;20525;-70
2023/06/03 01:48:07;;;;;;;21.05;10.38;;;;;;;12.02;100.00;101988.59;5233768;28;20466;-70
2023/06/03 01:50:53;;;;;;;25.08;10.65;;;;;;;12.00;100.00;101988.75;5230451;28;20115;-70
2023/06/03 01:53:23;;;;;;;25.10;10.98;;;;;;;11.98;100.00;101987.19;5228247;28;20029;-71
2023/06/03 01:55:55;;;;;;;22.67;11.20;;;;;;;11.95;100.00;101985.66;5228591;28;20021;-70
2023/06/03 01:58:29;;;;;;;24.87;10.90;;;;;;;11.91;100.00;101987.78;5228740;28;20040;-70
2023/06/03 02:01:07;;;;;;;22.63;11.63;;;;;;;11.91;100.00;101995.84;5228539;28;20621;-70
2023/06/03 02:03:37;;;;;;;23.52;11.38;;;;;;;11.90;100.00;101990.63;5228712;28;20036;-70
2023/06/03 02:06:13;;;;;;;28.60;10.90;;;;;;;11.89;100.00;101986.22;5227651;28;20374;-70
2023/06/03 02:08:45;;;;;;;19.73;10.77;;;;;;;11.90;100.00;101988.78;5210356;28;20479;-70
2023/06/03 02:11:20;;;;;;;24.33;11.85;;;;;;;11.88;100.00;101988.06;5228598;28;20032;-70
2023/06/03 02:13:51;;;;;;;26.95;11.40;;;;;;;11.85;100.00;101984.84;5237268;28;20065;-69
2023/06/03 02:16:22;;;;;;;25.73;11.60;;;;;;;11.81;100.00;101988.78;5229518;28;20111;-70
2023/06/03 02:18:54;;;;;;;29.85;11.82;;;;;;;11.82;100.00;101995.88;5218718;28;20024;-69
2023/06/03 02:21:25;;;;;;;21.67;11.93;;;;;;;11.78;100.00;101989.06;5233728;28;20027;-69
2023/06/03 02:23:56;;;;;;;37.88;12.25;;;;;;;11.78;100.00;101989.91;5245553;28;20021;-69
2023/06/03 02:26:28;;;;;;;22.70;11.48;;;;;;;11.76;100.00;101991.91;5242313;28;20029;-70
2023/06/03 02:28:59;;;;;;;28.13;11.25;;;;;;;11.72;100.00;101990.50;5239544;28;20028;-70
2023/06/03 02:31:29;;;;;;;25.08;11.35;;;;;;;11.66;100.00;101983.03;5228124;28;20486;-70
2023/06/03 02:34:00;;;;;;;19.88;12.35;;;;;;;11.64;100.00;101988.53;5227804;28;20028;-69
2023/06/03 02:36:30;;;;;;;22.27;11.82;;;;;;;11.60;100.00;101989.84;5227396;28;20013;-69
2023/06/03 02:39:01;;;;;;;23.23;12.30;;;;;;;11.60;100.00;101987.16;5228089;28;20505;-70
2023/06/03 02:41:31;;;;;;;27.83;11.70;;;;;;;11.58;100.00;101988.25;5227376;28;20159;-69
2023/06/03 02:44:03;;;;;;;21.67;11.07;;;;;;;11.54;100.00;101987.69;5227609;28;20024;-69
2023/06/03 02:46:33;;;;;;;23.50;11.43;;;;;;;11.53;100.00;101995.91;5226748;28;20372;-69
2023/06/03 02:49:06;;;;;;;25.33;11.52;;;;;;;11.48;100.00;101990.13;5229484;28;20033;-69
2023/06/03 02:51:36;;;;;;;23.20;11.07;;;;;;;11.47;100.00;101994.66;5227462;28;20418;-70
2023/06/03 02:54:07;;;;;;;28.65;12.40;;;;;;;11.43;100.00;101987.88;5209965;28;20040;-70
2023/06/03 02:56:38;;;;;;;32.28;12.90;;;;;;;11.40;100.00;101998.94;5226391;28;20025;-69
2023/06/03 02:59:08;;;;;;;23.20;11.90;;;;;;;11.37;100.00;102001.88;5227537;28;20359;-69
2023/06/03 03:01:39;;;;;;;24.20;11.80;;;;;;;11.33;100.00;101998.63;5226150;28;20028;-69
2023/06/03 03:04:09;;;;;;;24.25;12.15;;;;;;;11.33;100.00;102005.84;5226977;28;20505;-69
2023/06/03 03:06:40;;;;;;;31.30;13.30;;;;;;;11.32;100.00;102001.47;5226726;28;20024;-69
2023/06/03 03:09:11;;;;;;;25.02;11.15;;;;;;;11.29;100.00;101999.06;5226528;28;20024;-70
2023/06/03 03:11:41;;;;;;;26.95;12.07;;;;;;;11.29;100.00;102002.59;5227292;28;20048;-70
2023/06/03 03:14:11;;;;;;;25.30;12.50;;;;;;;11.29;100.00;101997.22;5226971;28;20021;-70
2023/06/03 03:16:42;;;;;;;24.45;12.10;;;;;;;11.30;100.00;102003.47;5226225;28;20028;-70
2023/06/03 03:19:14;;;;;;;20.67;12.18;;;;;;;11.28;100.00;102000.91;5226674;28;20470;-70
2023/06/03 03:21:45;;;;;;;21.80;11.27;;;;;;;11.27;100.00;101996.53;5226672;28;20040;-70
2023/06/03 03:24:15;;;;;;;22.92;11.63;;;;;;;11.25;100.00;102001.19;5246334;28;20028;-70
2023/06/03 03:26:46;;;;;;;34.30;12.30;;;;;;;11.25;100.00;101998.50;5233655;28;20032;-70
2023/06/03 03:29:18;;;;;;;20.33;11.40;;;;;;;11.26;100.00;102002.03;5246461;28;20113;-70
2023/06/03 03:31:53;;;;;;;26.27;12.45;;;;;;;11.25;100.00;102001.19;5246893;28;20115;-70
2023/06/03 03:34:24;;;;;;;25.13;12.10;;;;;;;11.23;100.00;102003.16;5243192;28;20386;-70
2023/06/03 03:36:55;;;;;;;29.00;11.63;;;;;;;11.17;100.00;102001.06;5226059;28;20021;-70
2023/06/03 03:39:25;;;;;;;24.05;11.13;;;;;;;11.15;100.00;102003.88;5227131;28;20025;-70
2023/06/03 03:41:56;;;;;;;29.77;12.50;;;;;;;11.11;100.00;101997.09;5226689;28;20142;-70
2023/06/03 03:44:28;;;;;;;28.60;12.35;;;;;;;11.08;100.00;102009.94;5226654;28;20029;-70
2023/06/03 03:47:01;;;;;;;27.52;12.82;;;;;;;11.10;100.00;102011.53;5226524;28;20032;-71
2023/06/03 03:49:35;;;;;;;34.80;12.35;;;;;;;11.09;100.00;102007.16;5226201;28;20033;-70
2023/06/03 03:52:05;;;;;;;24.90;11.85;;;;;;;11.11;100.00;101997.09;5228313;28;20549;-69
2023/06/03 03:54:36;;;;;;;27.58;12.38;;;;;;;11.14;100.00;102001.31;5226900;28;20096;-70
2023/06/03 03:57:11;;;;;;;27.80;12.85;;;;;;;11.19;100.00;102008.97;5226977;28;20028;-70
2023/06/03 03:59:42;;;;;;;30.05;12.40;;;;;;;11.23;100.00;102008.53;5226729;28;20028;-69
2023/06/03 04:02:13;;;;;;;22.88;11.52;;;;;;;11.26;100.00;102008.25;5227876;28;20025;-70
2023/06/03 04:04:44;;;;;;;22.95;11.30;;;;;;;11.33;100.00;102011.22;5226544;28;20025;-70
2023/06/03 04:07:33;;;;;;;27.50;11.77;;;;;;;11.38;100.00;102014.31;5238506;28;20017;-69
2023/06/03 04:10:08;;;;;;;21.80;12.35;;;;;;;11.42;100.00;102015.75;5229679;28;20075;-70
2023/06/03 04:12:38;;;;;;;;;;;;;;;11.47;100.00;102020.69;5227762;28;20021;-70
2023/06/03 04:15:09;;;;;;;21.60;11.27;;;;;;;11.48;100.00;102017.84;5238331;28;19908;-71
2023/06/03 04:17:40;;;;;;;29.88;11.88;;;;;;;11.54;100.00;102019.09;5226999;28;20402;-70
2023/06/03 04:20:49;;;;;;;18.40;10.90;;;;;;;11.58;100.00;102024.06;5230239;28;20456;-70
2023/06/03 04:23:20;;;;;;;22.85;10.95;;;;;;;11.63;100.00;102026.31;5240489;28;20020;-70
2023/06/03 04:25:53;;;;;;;21.73;11.10;;;;;;;11.65;100.00;102018.97;5244760;28;20040;-69
2023/06/03 04:28:24;;;;;;;26.88;11.68;;;;;;;11.70;100.00;102019.38;5232090;28;20158;-70
2023/06/03 04:30:54;;;;;;;28.63;11.70;;;;;;;11.72;100.00;102019.22;5245531;28;20024;-70
2023/06/03 04:33:25;;;;;;;24.27;11.40;;;;;;;11.73;100.00;102021.75;5227758;28;20029;-70
2023/06/03 04:35:56;;;;;;;28.27;12.32;;;;;;;11.76;100.00;102029.53;5244809;28;20055;-70
2023/06/03 04:38:26;;;;;;;23.05;10.93;;;;;;;11.79;100.00;102028.38;5234855;28;20020;-70
2023/06/03 04:40:57;;;;;;;27.02;11.88;;;;;;;11.82;100.00;102023.63;5235950;28;20466;-70
2023/06/03 04:43:27;;;;;;;28.55;11.05;;;;;;;11.86;100.00;102024.19;5243622;28;20027;-70
2023/06/03 04:46:00;;;;;;;27.77;11.25;;;;;;;11.88;100.00;102027.56;5238083;28;20116;-70
2023/06/03 04:48:30;;;;;;;30.02;10.75;;;;;;;11.91;100.00;102020.06;5225258;28;20543;-70
2023/06/03 04:51:06;;;;;;;27.42;11.63;;;;;;;11.95;100.00;102023.31;5225362;28;20029;-70
2023/06/03 04:53:37;;;;;;;21.13;11.38;;;;;;;11.99;100.00;102023.84;5224457;28;20021;-70
2023/06/03 04:56:08;;;;;;;26.42;10.30;;;;;;;12.02;100.00;102029.78;5224176;28;20032;-70
2023/06/03 04:58:40;;;;;;;32.50;11.07;;;;;;;12.09;100.00;102030.88;5225064;28;20029;-70
2023/06/03 05:01:11;;;;;;;23.08;11.05;;;;;;;12.14;100.00;102016.97;5224451;28;20029;-70
2023/06/03 05:03:44;;;;;;;25.10;11.20;;;;;;;12.18;100.00;102016.53;5224598;28;20033;-70
2023/06/03 05:06:14;;;;;;;23.75;11.40;;;;;;;12.24;100.00;102025.00;5223817;28;20121;-70
2023/06/03 05:08:47;;;;;;;27.35;11.23;;;;;;;12.30;100.00;102019.03;5224574;28;20042;-70
2023/06/03 05:11:18;;;;;;;21.73;10.32;;;;;;;12.38;100.00;102013.75;5224579;28;20086;-70
2023/06/03 05:13:48;;;;;;;31.13;11.18;;;;;;;12.44;100.00;102018.53;5224237;28;20041;-71
2023/06/03 05:16:20;;;;;;;24.42;10.20;;;;;;;12.54;100.00;102016.63;5223702;28;20025;-70
2023/06/03 05:18:50;;;;;;;25.58;10.48;;;;;;;12.61;100.00;102017.75;5224991;28;20552;-71
2023/06/03 05:21:21;;;;;;;19.98;9.48;;;;;;;12.72;100.00;102016.69;5234790;28;20115;-70
2023/06/03 05:23:51;;;;;;;23.30;10.80;;;;;;;12.81;100.00;102025.72;5240833;28;20028;-70
2023/06/03 05:26:22;;;;;;;25.38;10.65;;;;;;;12.91;100.00;102029.19;5242962;28;20020;-70
2023/06/03 05:28:53;;;;;;;24.90;9.77;;;;;;;13.02;100.00;102026.25;5243794;28;20073;-71
2023/06/03 05:31:23;;;;;;;22.40;9.23;;;;;;;13.12;100.00;102027.03;5244119;28;20040;-70
2023/06/03 05:33:54;;;;;;;21.42;9.20;;;;;;;13.23;100.00;102019.72;5244343;28;20020;-70
2023/06/03 05:36:26;;;;;;;21.27;9.38;;;;;;;13.33;100.00;102024.03;5230197;28;20020;-70
2023/06/03 05:38:56;;;;;;;17.15;9.07;;;;;;;13.45;100.00;102020.09;5230028;28;20100;-71
2023/06/03 05:41:27;;;;;;;19.52;8.60;;;;;;;13.62;100.00;102022.91;5232672;28;20027;-70
2023/06/03 05:43:57;;;;;;;24.08;9.43;;;;;;;13.76;100.00;102026.91;5242258;28;20085;-70
2023/06/03 05:46:28;;;;;;;21.40;8.60;;;;;;;13.88;100.00;102025.59;5232633;28;20023;-70
2023/06/03 05:48:58;;;;;;;15.68;8.02;;;;;;;14.03;100.00;102031.25;5243682;28;20032;-70
2023/06/03 05:51:29;;;;;;;19.98;8.35;;;;;;;14.19;100.00;102024.09;5243901;28;20029;-70
2023/06/03 05:53:59;;;;;;;22.55;8.52;;;;;;;14.40;100.00;102025.53;5238983;28;20082;-70
2023/06/03 05:56:30;;;;;;;14.90;8.07;;;;;;;14.72;100.00;102017.56;5234898;28;20074;-70
2023/06/03 05:59:00;;;;;;;21.65;7.22;;;;;;;15.28;100.00;102015.97;5224904;28;20024;-70
2023/06/03 06:01:33;;;;;;;18.60;7.30;;;;;;;16.14;100.00;102016.34;5224397;28;20032;-71
2023/06/03 06:04:03;;;;;;;18.27;7.50;;;;;;;16.86;100.00;102016.19;5223129;28;20049;-71
2023/06/03 06:06:34;;;;;;;11.35;6.45;;;;;;;17.59;100.00;102027.31;5223896;28;20063;-72
2023/06/03 06:09:04;;;;;;;15.32;6.40;;;;;;;18.36;100.00;102023.44;5223817;28;20029;-70
2023/06/03 06:11:35;;;;;;;16.60;5.97;;;;;;;18.87;100.00;102018.03;5224300;28;20075;-71
2023/06/03 06:14:05;;;;;;;10.90;6.50;;;;;;;19.20;100.00;102022.97;5223895;28;20024;-72
2023/06/03 06:16:36;;;;;;;15.40;6.00;;;;;;;19.49;100.00;102032.88;5223168;28;20025;-71
2023/06/03 06:19:06;;;;;;;12.00;5.68;;;;;;;19.77;100.00;102031.00;5223737;28;20053;-71
2023/06/03 06:21:37;;;;;;;13.98;5.15;;;;;;;19.80;100.00;102025.19;5231792;28;20028;-71
2023/06/03 06:24:08;;;;;;;11.82;6.03;;;;;;;19.86;100.00;102032.53;5229942;28;20068;-71
2023/06/03 06:26:40;;;;;;;12.25;4.80;;;;;;;20.01;100.00;102034.31;5242418;28;20020;-71
2023/06/03 06:29:11;;;;;;;12.50;5.88;;;;;;;20.18;100.00;102033.81;5243299;28;20029;-71
2023/06/03 06:31:43;;;;;;;12.95;5.43;;;;;;;20.44;100.00;102035.81;5243617;28;20020;-71
2023/06/03 06:34:17;;;;;;;15.60;5.30;;;;;;;20.74;100.00;102038.28;5212541;28;20052;-71
2023/06/03 06:36:52;;;;;;;9.10;4.93;;;;;;;21.02;100.00;102040.03;5234465;28;20016;-71
2023/06/03 06:39:34;;;;;;;;;;;;;;;21.02;100.00;102029.13;5245238;28;20028;-71
2023/06/03 06:42:11;;;;;;;10.80;5.07;;;;;;;21.26;100.00;102042.16;5246526;28;19951;-71
2023/06/03 06:44:57;;;;;;;11.38;5.15;;;;;;;21.49;100.00;102038.22;5235298;28;20024;-71
2023/06/03 06:47:35;;;;;;;12.32;4.80;;;;;;;21.80;100.00;102038.44;5234134;28;20081;-71
2023/06/03 06:50:08;;;;;;;9.10;4.75;;;;;;;22.17;100.00;102039.63;5246487;28;20029;-71
2023/06/03 06:52:39;;;;;;;12.48;5.05;;;;;;;22.27;100.00;102041.09;5247007;28;20024;-73
2023/06/03 06:55:20;;;;;;;11.60;5.18;;;;;;;22.51;100.00;102040.38;5246105;28;20385;-71
2023/06/03 06:57:54;;;;;;;11.65;4.57;;;;;;;22.48;100.00;102041.63;5235251;28;20044;-72
2023/06/03 07:00:28;;;;;;;14.30;4.80;;;;;;;22.58;100.00;102030.22;5243571;28;20552;-71
2023/06/03 07:02:58;;;;;;;9.27;4.00;;;;;;;22.78;100.00;102038.34;5246415;28;20017;-71
2023/06/03 07:05:29;;;;;;;10.13;4.28;;;;;;;22.73;100.00;102038.16;5245583;28;20315;-70
2023/06/03 07:07:59;;;;;;;13.13;4.45;;;;;;;22.98;100.00;102043.72;5245184;28;20033;-71
2023/06/03 07:10:30;;;;;;;9.30;4.28;;;;;;;23.39;100.00;102039.66;5245526;28;20111;-71
2023/06/03 07:13:02;;;;;;;10.57;4.15;;;;;;;23.59;100.00;102043.06;5246167;28;20054;-71
2023/06/03 07:15:33;;;;;;;9.75;4.00;;;;;;;23.60;98.90;102047.50;5246524;28;20067;-71
2023/06/03 07:18:03;;;;;;;6.47;3.70;;;;;;;23.44;99.15;102046.13;5232323;28;20052;-71
2023/06/03 07:20:39;;;;;;;9.82;3.95;;;;;;;23.56;100.00;102051.75;5241582;28;20036;-71
2023/06/03 07:23:12;;;;;;;14.23;4.63;;;;;;;23.63;100.00;102048.94;5234824;28;20640;-71
2023/06/03 07:25:44;;;;;;;8.82;4.28;;;;;;;23.56;97.59;102043.53;5244159;28;20028;-72
2023/06/03 07:28:20;;;;;;;8.05;3.30;;;;;;;23.72;91.03;102044.91;5232345;28;20028;-71
2023/06/03 07:30:52;;;;;;;11.38;3.38;;;;;;;23.63;87.70;102046.22;5245648;28;20028;-71
2023/06/03 07:33:26;;;;;;;8.38;3.67;;;;;;;23.80;85.59;102043.75;5237019;28;20036;-72
2023/06/03 07:36:00;;;;;;;7.30;3.40;;;;;;;23.83;85.98;102044.16;5227242;28;20024;-71
2023/06/03 07:39:08;;;;;;;5.13;2.90;;;;;;;23.74;88.62;102043.59;5245493;28;20029;-72
2023/06/03 07:41:40;;;;;;;8.85;3.35;;;;;;;23.87;76.95;102045.38;5245652;28;20058;-72
2023/06/03 07:44:13;;;;;;;7.18;3.25;;;;;;;24.03;80.35;102042.06;5228761;28;20037;-72
2023/06/03 07:46:46;;;;;;;7.15;3.08;;;;;;;24.22;75.57;102045.66;5226716;28;20031;-72
2023/06/03 07:49:16;;;;;;;7.53;3.33;;;;;;;24.27;77.67;102051.28;5226011;28;20028;-72
2023/06/03 07:51:50;;;;;;;8.43;3.30;;;;;;;24.64;83.63;102044.97;5209797;28;20682;-73
2023/06/03 07:54:21;;;;;;;5.30;3.15;;;;;;;24.93;73.99;102044.13;5225211;28;20432;-72
2023/06/03 07:56:51;;;;;;;6.13;2.83;;;;;;;24.99;70.09;102051.44;5225349;28;20021;-72
2023/06/03 07:59:23;;;;;;;7.45;2.80;;;;;;;24.95;66.33;102053.00;5225515;28;20029;-72
2023/06/03 08:01:58;;;;;;;4.93;2.47;;;;;;;24.95;65.87;102047.50;5206825;28;20033;-72
2023/06/03 08:04:32;;;;;;;7.60;3.17;;;;;;;24.80;66.60;102045.19;5239758;28;20077;-72
2023/06/03 08:07:05;;;;;;;10.00;3.10;;;;;;;25.22;67.40;102055.38;5229708;28;20047;-72
2023/06/03 08:09:37;;;;;;;8.32;3.05;;;;;;;25.41;63.70;102046.00;5244309;28;20501;-72
2023/06/03 08:12:08;;;;;;;6.15;3.15;;;;;;;25.60;61.94;102048.63;5228847;28;20055;-72
2023/06/03 08:14:39;;;;;;;6.57;2.67;;;;;;;25.64;60.25;102047.06;5230786;28;20104;-74
2023/06/03 08:17:12;;;;;;;10.25;2.85;;;;;;;25.81;62.85;102050.84;5227724;28;20034;-72
2023/06/03 08:19:45;;;;;;;6.53;2.78;;;;;;;25.93;58.34;102042.56;5241497;28;20058;-73
2023/06/03 08:22:39;;;;;;;5.15;2.55;;;;;;;26.13;58.96;102045.78;5228607;28;20375;-72
2023/06/03 08:25:10;;;;;;;6.78;2.60;;;;;;;26.20;56.36;102042.88;5224023;28;20032;-72
2023/06/03 08:27:41;;;;;;;11.48;3.25;;;;;;;26.43;58.20;102048.38;5238059;28;20483;-72
2023/06/03 08:30:13;;;;;;;8.05;2.50;;;;;;;26.49;59.54;102050.16;5244644;28;20063;-72
2023/06/03 08:32:45;;;;;;;9.88;2.67;;;;;;;26.16;50.17;102036.22;5217516;28;20027;-73
2023/06/03 08:35:19;;;;;;;7.80;2.85;;;;;;;25.86;47.57;102045.47;5244238;28;20036;-72
2023/06/03 08:37:49;;;;;;;7.93;2.42;;;;;;;25.60;57.44;102043.97;5243502;28;20194;-72
2023/06/03 08:40:23;;;;;;;6.35;2.45;;;;;;;25.55;54.87;102036.44;5244245;28;20016;-72
2023/06/03 08:43:02;;;;;;;13.10;2.97;;;;;;;25.55;55.91;102035.59;5226685;28;20028;-73
2023/06/03 08:46:10;;;;;;;6.70;2.25;;;;;;;25.50;48.95;102039.06;5240880;28;20024;-72
2023/06/03 08:49:04;;;;;;;9.02;2.67;;;;;;;25.44;50.84;102026.25;5239040;28;20057;-72
2023/06/03 08:51:37;;;;;;;7.25;2.60;;;;;;;25.57;49.38;102034.28;5232385;28;20017;-72
2023/06/03 08:54:13;;;;;;;11.93;2.15;;;;;;;25.44;45.47;102030.94;5236801;28;20563;-73
2023/06/03 08:56:53;;;;;;;9.65;2.38;;;;;;;25.12;46.45;102030.41;5222545;28;20021;-72
2023/06/03 08:59:26;;;;;;;5.85;2.22;;;;;;;25.19;43.50;102033.84;5243548;28;20491;-73
2023/06/03 09:01:58;;;;;;;11.65;2.53;;;;;;;24.91;43.09;102038.06;5244085;28;20021;-72
2023/06/03 09:04:29;;;;;;;10.93;2.55;;;;;;;24.89;44.99;102031.94;5232478;28;20044;-72
2023/06/03 09:07:03;;;;;;;11.43;2.72;;;;;;;25.05;43.38;102036.78;5241140;28;20087;-72
2023/06/03 09:09:35;;;;;;;7.30;2.05;;;;;;;25.15;46.86;102036.25;5236303;28;20033;-72
2023/06/03 09:12:06;;;;;;;5.72;2.20;;;;;;;25.33;47.74;102034.50;5236698;28;20394;-72
2023/06/03 09:14:38;;;;;;;6.43;2.30;;;;;;;25.43;42.55;102043.00;5242331;28;20032;-72
2023/06/03 09:17:09;;;;;;;8.07;2.60;;;;;;;25.22;45.85;102036.97;5231437;28;20053;-72
2023/06/03 09:19:40;;;;;;;5.97;2.13;;;;;;;25.16;46.62;102037.09;5226003;28;20027;-72
2023/06/03 09:22:11;;;;;;;4.78;2.40;;;;;;;25.42;46.82;102033.09;5236215;28;20036;-72
2023/06/03 09:24:42;;;;;;;7.78;2.05;;;;;;;25.63;43.78;102035.25;5243468;28;20021;-72
2023/06/03 09:27:12;;;;;;;10.65;2.40;;;;;;;25.59;42.57;102047.78;5242762;28;20764;-72
2023/06/03 09:29:43;;;;;;;7.50;1.92;;;;;;;25.12;39.28;102041.38;5243408;28;20028;-72
2023/06/03 09:32:14;;;;;;;8.82;1.92;;;;;;;25.17;41.12;102047.84;5231378;28;20392;-73
2023/06/03 09:34:45;;;;;;;5.45;1.85;;;;;;;25.15;41.37;102035.41;5243519;28;20028;-73
2023/06/03 09:37:16;;;;;;;5.30;1.63;;;;;;;25.19;40.98;102042.09;5211151;28;20029;-72
2023/06/03 09:39:48;;;;;;;9.77;1.98;;;;;;;25.48;42.16;102035.72;5243823;28;20056;-72
2023/06/03 09:42:19;;;;;;;8.65;2.08;;;;;;;25.69;45.32;102036.19;5230084;28;20535;-73
2023/06/03 09:44:52;;;;;;;7.78;1.67;;;;;;;25.62;43.03;102041.81;5243540;28;20103;-72
2023/06/03 09:47:34;;;;;;;2.90;1.70;;;;;;;25.70;41.09;102037.88;5227325;28;20029;-72
2023/06/03 09:50:06;;;;;;;6.95;2.00;;;;;;;25.61;39.99;102033.81;5218532;28;20037;-72
2023/06/03 09:52:37;;;;;;;3.30;1.80;;;;;;;25.14;41.69;102029.06;5243884;28;20033;-72
2023/06/03 09:55:10;;;;;;;4.80;1.77;;;;;;;25.39;42.86;102036.28;5243976;28;20135;-73
2023/06/03 09:57:41;;;;;;;3.50;1.50;;;;;;;25.79;42.34;102033.72;5225191;28;20093;-72
2023/06/03 10:00:13;;;;;;;6.53;1.60;;;;;;;25.74;39.48;102025.34;5243739;28;20016;-73
2023/06/03 10:02:44;;;;;;;6.55;1.90;;;;;;;25.56;37.81;102023.56;5243975;28;20024;-72
2023/06/03 10:05:26;;;;;;;4.07;1.58;;;;;;;25.34;38.40;102023.25;5244201;28;20604;-72
2023/06/03 10:07:57;;;;;;;4.45;1.55;;;;;;;25.29;38.90;102036.88;5229946;28;20033;-72
2023/06/03 10:10:28;;;;;;;17.98;2.28;;;;;;;25.45;39.99;102022.47;5236336;28;20033;-72
2023/06/03 10:13:19;;;;;;;5.00;1.60;;;;;;;25.50;37.45;102028.09;5241903;28;20024;-72
2023/06/03 10:15:52;;;;;;;2.15;1.48;;;;;;;25.29;36.30;102023.97;5235981;28;20482;-72
2023/06/03 10:18:40;;;;;;;6.20;1.73;;;;;;;25.37;38.73;102017.31;5245509;28;20024;-72
2023/06/03 10:21:12;;;;;;;4.28;1.75;;;;;;;25.56;40.98;102018.06;5239756;28;20029;-72
2023/06/03 10:23:43;;;;;;;5.25;1.70;;;;;;;25.78;40.18;102018.31;5240525;28;20021;-71
2023/06/03 10:26:16;;;;;;;7.00;1.67;;;;;;;25.73;37.33;102016.25;5246906;28;20028;-72
2023/06/03 10:28:49;;;;;;;2.70;1.83;;;;;;;25.47;35.96;102022.22;5246870;28;20382;-72
2023/06/03 10:31:22;;;;;;;5.05;1.80;;;;;;;25.13;38.81;102008.19;5247275;28;20024;-73
2023/06/03 10:33:53;;;;;;;10.48;1.75;;;;;;;25.14;37.92;102020.00;5246402;28;20035;-72
2023/06/03 10:36:26;;;;;;;8.20;1.70;;;;;;;25.10;36.80;102011.38;5245875;28;20432;-72
2023/06/03 10:39:03;;;;;;;10.80;1.73;;;;;;;24.99;36.65;102010.25;5242255;28;20020;-72
2023/06/03 10:41:38;;;;;;;7.60;1.67;;;;;;;24.99;37.16;102020.41;5246867;28;20028;-71
2023/06/03 10:44:08;;;;;;;6.80;1.80;;;;;;;24.99;38.51;102018.50;5247026;28;20695;-71
2023/06/03 10:46:49;;;;;;;4.90;1.50;;;;;;;25.22;39.05;102017.75;5246681;28;20060;-72
2023/06/03 10:49:23;;;;;;;5.75;1.67;;;;;;;25.46;37.27;102015.91;5239233;28;20022;-72
2023/06/03 10:52:28;;;;;;;3.03;1.52;;;;;;;25.67;37.83;102019.97;5240857;28;20043;-71
2023/06/03 10:55:36;;;;;;;7.93;1.40;;;;;;;25.52;37.05;102014.94;5246799;28;20036;-71
2023/06/03 10:58:14;;;;;;;7.38;1.45;;;;;;;25.58;38.62;102016.72;5246364;28;20031;-72
2023/06/03 11:01:05;;;;;;;9.27;1.60;;;;;;;25.56;36.06;102009.81;5226433;28;20116;-72
2023/06/03 11:04:11;;;;;;;5.10;1.50;;;;;;;25.43;35.31;102004.53;5239469;28;20025;-72
2023/06/03 11:06:41;;;;;;;4.30;1.50;;;;;;;25.54;38.87;102007.28;5240736;28;20082;-72
2023/06/03 11:09:16;;;;;;;4.93;2.00;;;;;;;25.48;36.41;102011.00;5246053;28;20032;-72
2023/06/03 11:11:48;;;;;;;3.83;1.42;;;;;;;25.30;35.49;102002.84;5246649;28;20055;-72
2023/06/03 11:17:25;;;;;;;;;;;;;;;25.01;35.22;102004.56;5246145;28;20025;-72
2023/06/03 11:19:57;;;;;;;9.43;1.75;;;;;;;24.86;36.58;102002.25;5241694;28;19913;-73
2023/06/03 11:22:27;;;;;;;7.55;2.15;;;;;;;24.59;33.81;101999.00;5229636;28;20032;-72
2023/06/03 11:24:59;;;;;;;5.72;1.80;;;;;;;24.81;38.02;102004.84;5242433;28;20490;-72
2023/06/03 11:27:30;;;;;;;4.68;1.60;;;;;;;24.85;36.34;102006.06;5245580;28;20025;-72
2023/06/03 11:30:05;;;;;;;3.42;1.70;;;;;;;24.81;39.12;101999.34;5240448;28;20025;-72
2023/06/03 11:32:36;;;;;;;7.90;2.03;;;;;;;24.96;37.26;102001.69;5238067;28;20107;-72
2023/06/03 11:35:07;;;;;;;8.30;2.00;;;;;;;25.04;39.40;102001.31;5244565;28;20025;-72
2023/06/03 11:37:53;;;;;;;5.50;2.03;;;;;;;25.19;39.69;101988.00;5243669;28;20067;-73
2023/06/03 11:40:24;;;;;;;6.32;1.88;;;;;;;25.41;36.58;101982.81;5244315;28;20028;-72
2023/06/03 11:42:54;;;;;;;8.05;1.73;;;;;;;25.52;36.01;101987.47;5226763;28;20645;-72